Time;durP1;ratioP1;P1;durP2;ratioP2;P2;SDS_P1;SDS_P2;PMS_P1;PMS_P2;Temp;Humidity;BMP_temperature;BMP_pressure;BME280_temperature;BME280_humidity;BME280_pressure;Samples;Min_cycle;Max_cycle;Signal;HPM_P1;HPM_P2
2021/11/27 00:01:54;;;;;;;0.40;0.20;;;5.50;98.70;;;;;;4983384;28;20403;-70
2021/11/27 00:04:20;;;;;;;0.40;0.20;;;5.50;99.20;;;;;;4985606;28;20910;-70
2021/11/27 00:06:46;;;;;;;0.40;0.20;;;5.30;99.90;;;;;;4985193;28;20401;-70
2021/11/27 00:09:12;;;;;;;0.40;0.20;;;5.30;99.90;;;;;;4986295;28;20417;-69
2021/11/27 00:11:39;;;;;;;0.40;0.20;;;5.10;99.90;;;;;;4982580;28;20403;-70
2021/11/27 00:14:05;;;;;;;0.40;0.20;;;5.10;99.90;;;;;;4985938;28;20398;-70
2021/11/27 00:16:32;;;;;;;0.40;0.20;;;5.00;99.90;;;;;;4985376;28;20393;-69
2021/11/27 00:18:58;;;;;;;0.40;0.20;;;5.10;99.90;;;;;;4984436;28;20447;-70
2021/11/27 00:21:24;;;;;;;0.40;0.20;;;5.00;99.90;;;;;;4982543;28;20488;-70
2021/11/27 00:23:52;;;;;;;0.40;0.20;;;5.10;99.90;;;;;;4987226;28;20405;-69
2021/11/27 00:26:19;;;;;;;0.40;0.20;;;5.10;99.90;;;;;;4986284;28;20388;-69
2021/11/27 00:28:46;;;;;;;0.40;0.20;;;5.10;99.90;;;;;;4986945;28;20419;-69
2021/11/27 00:31:23;;;;;;;0.40;0.20;;;5.00;99.90;;;;;;4985920;28;20421;-69
2021/11/27 00:33:49;;;;;;;0.40;0.20;;;4.90;99.90;;;;;;4987399;28;20425;-70
2021/11/27 00:36:16;;;;;;;0.40;0.20;;;4.90;99.90;;;;;;4986593;28;20415;-70
2021/11/27 00:38:42;;;;;;;0.40;0.20;;;4.90;99.90;;;;;;4984767;28;20397;-71
2021/11/27 00:41:10;;;;;;;0.40;0.20;;;5.00;99.90;;;;;;4985481;28;20389;-70
2021/11/27 00:43:36;;;;;;;0.40;0.20;;;5.10;99.90;;;;;;4987161;28;20424;-69
2021/11/27 00:46:02;;;;;;;0.40;0.20;;;5.00;99.90;;;;;;4987064;28;20472;-69
2021/11/27 00:48:28;;;;;;;0.40;0.20;;;4.90;99.90;;;;;;4986787;28;20419;-69
2021/11/27 00:50:58;;;;;;;0.40;0.20;;;4.80;99.90;;;;;;4966022;28;20428;-68
2021/11/27 00:53:24;;;;;;;0.40;0.20;;;4.70;99.90;;;;;;4967182;28;20411;-67
2021/11/27 00:55:50;;;;;;;0.40;0.20;;;4.80;99.90;;;;;;4969132;28;20736;-70
2021/11/27 00:58:17;;;;;;;0.40;0.20;;;4.80;99.90;;;;;;4970698;28;20745;-70
2021/11/27 01:00:53;;;;;;;0.40;0.20;;;4.90;99.90;;;;;;4968731;28;20408;-70
2021/11/27 01:03:21;;;;;;;0.50;0.40;;;4.90;99.90;;;;;;4970438;28;20396;-71
2021/11/27 01:05:47;;;;;;;0.40;0.20;;;4.90;99.90;;;;;;4970402;28;20410;-70
2021/11/27 01:08:15;;;;;;;0.40;0.20;;;4.90;99.90;;;;;;4971706;28;20430;-70
2021/11/27 01:10:50;;;;;;;0.40;0.20;;;4.90;99.90;;;;;;4968737;28;20488;-68
2021/11/27 01:13:16;;;;;;;0.40;0.20;;;4.90;99.90;;;;;;4971140;28;20396;-70
2021/11/27 01:15:42;;;;;;;0.40;0.20;;;4.80;99.90;;;;;;4970979;28;20735;-68
2021/11/27 01:18:08;;;;;;;0.40;0.20;;;4.90;99.90;;;;;;4970426;28;20401;-70
2021/11/27 01:20:41;;;;;;;0.40;0.20;;;4.90;99.90;;;;;;4969499;28;20503;-68
2021/11/27 01:23:08;;;;;;;0.40;0.20;;;4.80;99.90;;;;;;4968908;28;20559;-68
2021/11/27 01:25:34;;;;;;;0.40;0.20;;;4.90;99.90;;;;;;4970134;28;20488;-70
2021/11/27 01:28:00;;;;;;;0.40;0.20;;;4.90;99.90;;;;;;4971061;28;20852;-68
2021/11/27 01:30:26;;;;;;;0.40;0.20;;;4.80;99.90;;;;;;4969357;28;20433;-70
2021/11/27 01:32:52;;;;;;;0.40;0.20;;;4.80;99.90;;;;;;4952409;28;20392;-70
2021/11/27 01:35:18;;;;;;;0.40;0.20;;;4.70;99.90;;;;;;4969446;28;20838;-71
2021/11/27 01:37:45;;;;;;;0.40;0.20;;;4.70;99.90;;;;;;4971290;28;20423;-70
2021/11/27 01:40:15;;;;;;;0.40;0.20;;;4.60;99.90;;;;;;4969921;28;20891;-70
2021/11/27 01:42:41;;;;;;;0.40;0.20;;;4.60;99.90;;;;;;4969007;28;20403;-70
2021/11/27 01:45:09;;;;;;;0.40;0.20;;;4.50;99.90;;;;;;4970420;28;20421;-71
2021/11/27 01:47:34;;;;;;;0.40;0.20;;;4.40;99.90;;;;;;4969894;28;20893;-71
2021/11/27 01:50:00;;;;;;;0.40;0.20;;;4.40;99.90;;;;;;4982193;28;20417;-70
2021/11/27 01:52:26;;;;;;;0.40;0.20;;;4.30;99.90;;;;;;4987871;28;20426;-72
2021/11/27 01:54:52;;;;;;;0.40;0.20;;;4.30;99.90;;;;;;4988932;28;20888;-72
2021/11/27 01:57:17;;;;;;;0.40;0.20;;;4.30;99.90;;;;;;4989507;28;20902;-71
2021/11/27 01:59:44;;;;;;;0.40;0.20;;;4.20;99.90;;;;;;4990264;28;20403;-70
2021/11/27 02:02:13;;;;;;;0.40;0.20;;;4.10;99.90;;;;;;4988329;28;20397;-71
2021/11/27 02:04:39;;;;;;;0.40;0.20;;;4.00;99.90;;;;;;4988946;28;21198;-72
2021/11/27 02:07:06;;;;;;;0.40;0.20;;;3.90;99.90;;;;;;4989737;28;20396;-71
2021/11/27 02:09:34;;;;;;;0.40;0.20;;;3.90;99.90;;;;;;4990013;28;20899;-72
2021/11/27 02:12:02;;;;;;;0.40;0.20;;;3.90;99.90;;;;;;4987337;28;20386;-71
2021/11/27 02:14:28;;;;;;;0.40;0.20;;;3.90;99.90;;;;;;4989361;28;20484;-72
2021/11/27 02:16:54;;;;;;;0.40;0.20;;;4.00;99.90;;;;;;4988355;28;20389;-73
2021/11/27 02:19:20;;;;;;;0.50;0.50;;;4.10;99.90;;;;;;4989786;28;20406;-73
2021/11/27 02:21:47;;;;;;;0.40;0.20;;;4.10;99.90;;;;;;4987533;28;20472;-73
2021/11/27 02:24:16;;;;;;;0.40;0.20;;;4.20;99.90;;;;;;4989076;28;20476;-73
2021/11/27 02:26:44;;;;;;;0.40;0.20;;;4.20;99.90;;;;;;4989671;28;20399;-73
2021/11/27 02:29:13;;;;;;;0.40;0.20;;;4.20;99.90;;;;;;4988766;28;20424;-73
2021/11/27 02:31:39;;;;;;;0.40;0.20;;;4.20;99.90;;;;;;4986987;28;20401;-73
2021/11/27 02:34:06;;;;;;;0.40;0.20;;;4.30;99.90;;;;;;4988011;28;20402;-73
2021/11/27 02:36:34;;;;;;;0.40;0.20;;;4.10;99.90;;;;;;4988644;28;20903;-73
2021/11/27 02:39:05;;;;;;;0.40;0.20;;;4.20;99.90;;;;;;4988716;28;20405;-72
2021/11/27 02:41:30;;;;;;;0.40;0.20;;;4.30;99.90;;;;;;4987231;28;20392;-73
2021/11/27 02:43:56;;;;;;;0.40;0.20;;;4.20;99.90;;;;;;4988662;28;20398;-72
2021/11/27 02:46:22;;;;;;;0.40;0.20;;;4.30;99.90;;;;;;4988062;28;20397;-71
2021/11/27 02:48:48;;;;;;;0.40;0.20;;;4.30;99.90;;;;;;4987176;28;20423;-72
2021/11/27 02:51:14;;;;;;;0.40;0.20;;;4.20;99.90;;;;;;4966652;28;20681;-72
2021/11/27 02:53:40;;;;;;;1.00;0.90;;;4.20;99.90;;;;;;4968735;28;20394;-72
2021/11/27 02:56:06;;;;;;;0.40;0.20;;;4.40;99.90;;;;;;4968895;28;20877;-71
2021/11/27 02:58:32;;;;;;;0.40;0.20;;;4.40;99.90;;;;;;4967284;28;20773;-71
2021/11/27 03:01:03;;;;;;;0.40;0.20;;;4.40;99.90;;;;;;4966762;28;20395;-70
2021/11/27 03:03:29;;;;;;;0.40;0.20;;;4.50;99.90;;;;;;4969076;28;20843;-70
2021/11/27 03:05:55;;;;;;;0.40;0.40;;;4.70;99.90;;;;;;4969142;28;20400;-70
2021/11/27 03:08:21;;;;;;;0.40;0.20;;;4.60;99.90;;;;;;4968969;28;20484;-69
2021/11/27 03:10:47;;;;;;;0.40;0.20;;;4.70;99.90;;;;;;4966530;28;20411;-69
2021/11/27 03:13:13;;;;;;;0.40;0.20;;;4.70;99.90;;;;;;4968309;28;20420;-70
2021/11/27 03:15:42;;;;;;;0.40;0.20;;;4.60;99.90;;;;;;4968797;28;20411;-69
2021/11/27 03:18:12;;;;;;;0.40;0.20;;;4.60;99.90;;;;;;4969233;28;20440;-70
2021/11/27 03:20:38;;;;;;;0.40;0.20;;;4.60;99.90;;;;;;4948627;28;20430;-70
2021/11/27 03:23:05;;;;;;;0.40;0.20;;;4.50;99.90;;;;;;4968594;28;20470;-70
2021/11/27 03:25:31;;;;;;;0.40;0.20;;;4.60;99.90;;;;;;4968178;28;21093;-70
2021/11/27 03:27:57;;;;;;;0.40;0.20;;;4.50;99.90;;;;;;4967968;28;20395;-69
2021/11/27 03:30:23;;;;;;;0.40;0.20;;;4.40;99.90;;;;;;4966953;28;20400;-70
2021/11/27 03:32:49;;;;;;;0.40;0.20;;;4.40;99.90;;;;;;4968600;28;20413;-69
2021/11/27 03:35:16;;;;;;;0.40;0.20;;;4.40;99.90;;;;;;4967738;28;20400;-68
2021/11/27 03:37:43;;;;;;;0.40;0.20;;;4.40;99.90;;;;;;4951934;28;20404;-70
2021/11/27 03:40:10;;;;;;;0.40;0.20;;;4.40;99.90;;;;;;4968271;28;20932;-71
2021/11/27 03:42:36;;;;;;;0.40;0.20;;;4.50;99.90;;;;;;4966050;28;20390;-70
2021/11/27 03:45:04;;;;;;;0.40;0.20;;;4.40;99.90;;;;;;4968031;28;20388;-70
2021/11/27 03:47:30;;;;;;;0.40;0.20;;;4.40;99.90;;;;;;4968771;28;20854;-71
2021/11/27 03:49:56;;;;;;;0.40;0.20;;;4.40;99.90;;;;;;4979213;28;20442;-72
2021/11/27 03:52:22;;;;;;;0.40;0.20;;;4.40;99.90;;;;;;4985301;28;20394;-71
2021/11/27 03:54:49;;;;;;;0.40;0.20;;;4.30;99.90;;;;;;4987845;28;20397;-72
2021/11/27 03:57:15;;;;;;;0.40;0.20;;;4.20;99.90;;;;;;4986624;28;20795;-74
2021/11/27 03:59:40;;;;;;;0.40;0.20;;;4.10;99.90;;;;;;4987371;28;20409;-74
2021/11/27 04:02:07;;;;;;;0.40;0.20;;;4.10;99.90;;;;;;4985484;28;20390;-73
2021/11/27 04:04:35;;;;;;;0.40;0.20;;;4.00;99.90;;;;;;4986715;28;20904;-73
2021/11/27 04:07:02;;;;;;;0.40;0.20;;;4.00;99.90;;;;;;4987621;28;20440;-73
2021/11/27 04:09:27;;;;;;;0.40;0.20;;;4.00;99.90;;;;;;4987450;28;20417;-76
2021/11/27 04:11:53;;;;;;;0.40;0.20;;;3.90;99.90;;;;;;4967057;28;20958;-75
2021/11/27 04:14:19;;;;;;;0.40;0.20;;;4.00;99.90;;;;;;4952778;28;20410;-74
2021/11/27 04:16:45;;;;;;;0.40;0.20;;;3.90;99.90;;;;;;4987942;28;20393;-76
2021/11/27 04:19:11;;;;;;;0.40;0.20;;;3.80;99.90;;;;;;4987849;28;20408;-74
2021/11/27 04:21:36;;;;;;;0.40;0.20;;;3.90;99.90;;;;;;4984963;28;20897;-75
2021/11/27 04:24:03;;;;;;;0.40;0.20;;;4.00;99.90;;;;;;4987408;28;20403;-74
2021/11/27 04:26:29;;;;;;;0.40;0.20;;;4.00;99.90;;;;;;4986792;28;20397;-74
2021/11/27 04:28:55;;;;;;;0.40;0.20;;;4.00;99.90;;;;;;4986892;28;20469;-74
2021/11/27 04:31:22;;;;;;;0.40;0.20;;;4.10;99.90;;;;;;4987583;28;20602;-73
2021/11/27 04:33:48;;;;;;;0.40;0.20;;;4.00;99.90;;;;;;4991298;28;20413;-74
2021/11/27 04:36:15;;;;;;;0.40;0.20;;;4.10;99.90;;;;;;4991783;28;20495;-73
2021/11/27 04:38:41;;;;;;;0.40;0.20;;;4.20;99.90;;;;;;4972598;28;20767;-73
2021/11/27 04:41:07;;;;;;;0.40;0.20;;;4.30;99.90;;;;;;4988436;28;20395;-73
2021/11/27 04:43:33;;;;;;;0.40;0.20;;;4.30;99.90;;;;;;4990542;28;20489;-73
2021/11/27 04:45:58;;;;;;;0.40;0.20;;;4.30;99.90;;;;;;4990506;28;20467;-72
2021/11/27 04:48:24;;;;;;;0.40;0.30;;;4.30;99.90;;;;;;4991605;28;20883;-71
2021/11/27 04:50:51;;;;;;;0.40;0.20;;;4.40;99.90;;;;;;4988865;28;20476;-73
2021/11/27 04:53:16;;;;;;;0.40;0.20;;;4.40;99.90;;;;;;4991279;28;20393;-72
2021/11/27 04:55:43;;;;;;;0.40;0.20;;;4.40;99.90;;;;;;4990093;28;21092;-72
2021/11/27 04:58:09;;;;;;;0.40;0.20;;;4.40;99.90;;;;;;4990648;28;20877;-71
2021/11/27 05:00:44;;;;;;;0.40;0.20;;;4.50;99.90;;;;;;4989436;28;20389;-71
2021/11/27 05:03:10;;;;;;;0.40;0.20;;;4.50;99.90;;;;;;4991709;28;20396;-71
2021/11/27 05:05:35;;;;;;;0.40;0.20;;;4.50;99.90;;;;;;4990830;28;20907;-72
2021/11/27 05:08:02;;;;;;;0.40;0.20;;;4.60;99.90;;;;;;4990343;28;21037;-72
2021/11/27 05:10:28;;;;;;;0.40;0.20;;;4.50;99.90;;;;;;4988740;28;20393;-72
2021/11/27 05:12:54;;;;;;;0.40;0.20;;;4.60;99.90;;;;;;4989140;28;20406;-71
2021/11/27 05:15:20;;;;;;;0.40;0.20;;;4.70;99.90;;;;;;4973190;28;20466;-72
2021/11/27 05:17:46;;;;;;;0.40;0.20;;;4.70;99.90;;;;;;4990445;28;20395;-71
2021/11/27 05:20:13;;;;;;;0.40;0.20;;;4.60;99.90;;;;;;4990568;28;20431;-71
2021/11/27 05:22:39;;;;;;;0.40;0.20;;;4.70;99.90;;;;;;4989408;28;20399;-73
2021/11/27 05:25:06;;;;;;;0.40;0.20;;;4.80;99.90;;;;;;4989921;28;20395;-72
2021/11/27 05:27:32;;;;;;;0.40;0.20;;;4.70;99.90;;;;;;4991109;28;20574;-73
2021/11/27 05:29:58;;;;;;;0.40;0.20;;;4.70;99.90;;;;;;4972389;28;20477;-70
2021/11/27 05:35:00;;;;;;;0.40;0.20;;;4.70;99.90;;;;;;4989930;28;20381;-74
2021/11/27 05:37:26;;;;;;;0.40;0.20;;;4.80;99.90;;;;;;4990586;28;20391;-73
2021/11/27 05:39:52;;;;;;;0.40;0.20;;;4.70;99.90;;;;;;4989292;28;20500;-70
2021/11/27 05:42:17;;;;;;;0.40;0.20;;;4.70;99.90;;;;;;4968404;28;20394;-71
2021/11/27 05:44:45;;;;;;;0.40;0.20;;;4.80;99.90;;;;;;4989131;28;20390;-72
2021/11/27 05:47:11;;;;;;;0.40;0.20;;;4.80;99.90;;;;;;4990588;28;20741;-72
2021/11/27 05:49:38;;;;;;;0.40;0.20;;;4.70;99.90;;;;;;4989517;28;20433;-73
2021/11/27 05:52:04;;;;;;;0.40;0.20;;;4.70;99.90;;;;;;4988314;28;20385;-73
2021/11/27 05:54:30;;;;;;;0.40;0.20;;;4.70;99.90;;;;;;4989965;28;20759;-73
2021/11/27 05:56:55;;;;;;;0.40;0.20;;;4.70;99.90;;;;;;4972011;28;20406;-73
2021/11/27 05:59:21;;;;;;;0.40;0.20;;;4.70;99.90;;;;;;4989933;28;20487;-72
2021/11/27 06:01:47;;;;;;;0.40;0.20;;;4.70;99.90;;;;;;4969685;28;20437;-72
2021/11/27 06:04:12;;;;;;;0.40;0.20;;;4.70;99.90;;;;;;4989909;28;20446;-72
2021/11/27 06:06:38;;;;;;;0.40;0.20;;;4.80;99.90;;;;;;4989636;28;20389;-74
2021/11/27 06:09:04;;;;;;;0.40;0.20;;;4.80;99.90;;;;;;4989164;28;20427;-73
2021/11/27 06:11:29;;;;;;;0.40;0.20;;;4.80;99.90;;;;;;4987339;28;20418;-71
2021/11/27 06:13:55;;;;;;;0.40;0.20;;;4.90;99.90;;;;;;4988429;28;20391;-74
2021/11/27 06:16:21;;;;;;;0.40;0.20;;;5.00;99.90;;;;;;4989673;28;20393;-71
2021/11/27 06:18:47;;;;;;;0.40;0.20;;;4.90;99.90;;;;;;4989049;28;20393;-71
2021/11/27 06:21:13;;;;;;;0.40;0.20;;;4.90;99.90;;;;;;4988426;28;21310;-72
2021/11/27 06:23:39;;;;;;;0.40;0.20;;;4.90;99.90;;;;;;4990539;28;20396;-70
2021/11/27 06:26:05;;;;;;;0.40;0.30;;;4.90;99.90;;;;;;4988675;28;20742;-70
2021/11/27 06:28:31;;;;;;;0.40;0.20;;;5.00;99.90;;;;;;4989141;28;20462;-70
2021/11/27 06:30:57;;;;;;;0.40;0.20;;;4.90;99.90;;;;;;4987687;28;21338;-70
2021/11/27 06:33:23;;;;;;;0.40;0.20;;;4.90;99.90;;;;;;4972126;28;20399;-70
2021/11/27 06:35:49;;;;;;;0.40;0.20;;;4.90;99.90;;;;;;4988296;28;20386;-70
2021/11/27 06:38:15;;;;;;;0.40;0.20;;;5.00;99.90;;;;;;4988260;28;20393;-70
2021/11/27 06:40:41;;;;;;;0.40;0.30;;;4.90;99.90;;;;;;4987498;28;20403;-70
2021/11/27 06:43:07;;;;;;;0.40;0.20;;;5.00;99.90;;;;;;4989905;28;20402;-70
2021/11/27 06:45:33;;;;;;;0.40;0.20;;;5.00;99.90;;;;;;4988669;28;20400;-71
2021/11/27 06:47:59;;;;;;;0.40;0.20;;;5.00;99.90;;;;;;4989078;28;20398;-71
2021/11/27 06:50:25;;;;;;;0.40;0.20;;;5.00;99.90;;;;;;4973353;28;20747;-70
2021/11/27 06:52:51;;;;;;;0.40;0.20;;;5.10;99.90;;;;;;4969573;28;20865;-70
2021/11/27 06:55:17;;;;;;;0.40;0.20;;;5.00;99.90;;;;;;4968216;28;20929;-69
2021/11/27 06:57:44;;;;;;;0.40;0.20;;;5.00;99.90;;;;;;4965693;28;20408;-71
2021/11/27 07:00:10;;;;;;;0.40;0.20;;;5.00;99.90;;;;;;4968160;28;21319;-70
2021/11/27 07:02:36;;;;;;;0.40;0.20;;;5.10;99.90;;;;;;4959210;28;20408;-71
2021/11/27 07:05:03;;;;;;;0.40;0.20;;;5.10;99.90;;;;;;4967998;28;20440;-71
2021/11/27 07:07:29;;;;;;;0.40;0.20;;;5.20;99.90;;;;;;4967422;28;20397;-72
2021/11/27 07:09:55;;;;;;;0.40;0.20;;;5.20;99.90;;;;;;4950381;28;20419;-70
2021/11/27 07:12:20;;;;;;;0.40;0.20;;;5.20;99.90;;;;;;4966689;28;20388;-70
2021/11/27 07:14:46;;;;;;;0.40;0.20;;;5.20;99.90;;;;;;4968683;28;20560;-70
2021/11/27 07:17:12;;;;;;;0.40;0.20;;;5.10;99.90;;;;;;4970221;28;20865;-70
2021/11/27 07:19:37;;;;;;;0.40;0.20;;;5.20;99.90;;;;;;4968843;28;20400;-71
2021/11/27 07:22:04;;;;;;;0.40;0.20;;;5.20;99.90;;;;;;4966766;28;20451;-71
2021/11/27 07:24:30;;;;;;;0.40;0.20;;;5.30;99.90;;;;;;4968889;28;20392;-70
2021/11/27 07:26:56;;;;;;;0.40;0.20;;;5.10;99.90;;;;;;4968278;28;20398;-71
2021/11/27 07:29:22;;;;;;;0.40;0.20;;;5.20;99.90;;;;;;4936078;28;20422;-71
2021/11/27 07:31:48;;;;;;;0.40;0.20;;;5.30;99.90;;;;;;4967848;28;20390;-71
2021/11/27 07:34:15;;;;;;;0.40;0.20;;;5.30;99.90;;;;;;4967963;28;20403;-70
2021/11/27 07:36:40;;;;;;;0.50;0.40;;;5.20;99.90;;;;;;4969157;28;20484;-70
2021/11/27 07:39:09;;;;;;;0.40;0.20;;;5.20;99.90;;;;;;4966845;28;21207;-70
2021/11/27 07:41:35;;;;;;;0.40;0.20;;;5.20;99.90;;;;;;4967246;28;20396;-70
2021/11/27 07:44:00;;;;;;;1.90;1.00;;;5.20;99.90;;;;;;4950034;28;20449;-69
2021/11/27 07:46:29;;;;;;;0.40;0.20;;;5.20;99.90;;;;;;4968216;28;20887;-71
2021/11/27 07:48:55;;;;;;;0.40;0.20;;;5.20;99.90;;;;;;4971027;28;20429;-69
2021/11/27 07:51:21;;;;;;;0.40;0.20;;;5.20;99.90;;;;;;4985506;28;20788;-70
2021/11/27 07:53:47;;;;;;;0.40;0.20;;;5.20;99.90;;;;;;4981936;28;20391;-70
2021/11/27 07:56:13;;;;;;;0.40;0.20;;;5.20;99.90;;;;;;4987915;28;20401;-70
2021/11/27 07:58:39;;;;;;;0.40;0.20;;;5.10;99.90;;;;;;4987492;28;20402;-70
2021/11/27 08:01:05;;;;;;;0.40;0.20;;;5.20;99.90;;;;;;4986229;28;20402;-73
2021/11/27 08:03:31;;;;;;;0.40;0.20;;;5.20;99.90;;;;;;4986635;28;20393;-71
2021/11/27 08:05:56;;;;;;;0.40;0.20;;;5.30;99.90;;;;;;4986570;28;20802;-70
2021/11/27 08:08:22;;;;;;;0.40;0.20;;;5.30;99.90;;;;;;4986723;28;20509;-70
2021/11/27 08:10:48;;;;;;;0.40;0.20;;;5.30;99.90;;;;;;4985676;28;20398;-70
2021/11/27 08:13:14;;;;;;;0.40;0.20;;;5.30;99.90;;;;;;4986870;28;20396;-70
2021/11/27 08:15:40;;;;;;;0.40;0.20;;;5.30;99.90;;;;;;4986478;28;20487;-70
2021/11/27 08:18:06;;;;;;;0.40;0.20;;;5.30;99.90;;;;;;4987895;28;20411;-71
2021/11/27 08:20:32;;;;;;;0.40;0.20;;;5.40;99.90;;;;;;4985809;28;20419;-70
2021/11/27 08:22:57;;;;;;;0.40;0.20;;;5.40;99.90;;;;;;4987289;28;20398;-70
2021/11/27 08:25:23;;;;;;;0.40;0.20;;;5.60;99.90;;;;;;4987917;28;20390;-70
2021/11/27 08:27:49;;;;;;;0.40;0.20;;;5.60;99.90;;;;;;4987591;28;20400;-70
2021/11/27 08:30:15;;;;;;;0.40;0.20;;;5.60;99.90;;;;;;4986977;28;20506;-70
2021/11/27 08:32:41;;;;;;;0.40;0.20;;;5.70;99.90;;;;;;4967466;28;20402;-68
2021/11/27 08:35:08;;;;;;;0.40;0.20;;;5.70;99.90;;;;;;4985030;28;20495;-70
2021/11/27 08:37:34;;;;;;;0.40;0.20;;;5.60;99.90;;;;;;4985110;28;20389;-69
2021/11/27 08:40:01;;;;;;;0.40;0.20;;;5.60;99.90;;;;;;4981677;28;20536;-70
2021/11/27 08:42:27;;;;;;;0.40;0.20;;;5.70;99.90;;;;;;4986194;28;21256;-69
2021/11/27 08:44:53;;;;;;;0.40;0.20;;;5.60;99.90;;;;;;4986363;28;20395;-69
2021/11/27 08:47:20;;;;;;;0.40;0.20;;;5.80;99.90;;;;;;4983481;28;20395;-70
2021/11/27 08:49:46;;;;;;;0.40;0.20;;;5.70;99.90;;;;;;4986964;28;20475;-69
2021/11/27 08:52:12;;;;;;;0.40;0.20;;;5.70;99.90;;;;;;4985851;28;20391;-70
2021/11/27 08:54:38;;;;;;;0.40;0.20;;;5.80;99.90;;;;;;4986963;28;20394;-69
2021/11/27 08:57:04;;;;;;;0.40;0.20;;;5.70;99.90;;;;;;4985939;28;20404;-70
2021/11/27 08:59:30;;;;;;;0.40;0.20;;;5.60;99.90;;;;;;4986048;28;20435;-69
2021/11/27 09:01:57;;;;;;;0.40;0.20;;;5.60;99.90;;;;;;4985160;28;20469;-70
2021/11/27 09:04:25;;;;;;;0.40;0.20;;;5.50;99.90;;;;;;4986224;28;21249;-69
2021/11/27 09:06:51;;;;;;;0.40;0.20;;;5.40;99.90;;;;;;4969745;28;20399;-69
2021/11/27 09:09:17;;;;;;;0.40;0.20;;;5.40;99.90;;;;;;4986489;28;20421;-69
2021/11/27 09:11:43;;;;;;;0.40;0.20;;;5.40;99.90;;;;;;4985980;28;21082;-69
2021/11/27 09:14:09;;;;;;;0.40;0.20;;;5.40;99.90;;;;;;4986469;28;20530;-69
2021/11/27 09:16:35;;;;;;;0.40;0.20;;;5.30;99.90;;;;;;4987014;28;20382;-68
2021/11/27 09:19:04;;;;;;;0.40;0.20;;;5.30;99.90;;;;;;4990633;28;20394;-70
2021/11/27 09:21:30;;;;;;;0.40;0.20;;;5.30;99.90;;;;;;4988754;28;20501;-68
2021/11/27 09:23:57;;;;;;;0.40;0.20;;;5.20;99.90;;;;;;4991603;28;20396;-69
2021/11/27 09:26:22;;;;;;;0.40;0.20;;;5.00;99.90;;;;;;4990637;28;20893;-69
2021/11/27 09:28:48;;;;;;;0.40;0.20;;;4.80;99.90;;;;;;4991257;28;20906;-70
2021/11/27 09:31:14;;;;;;;0.40;0.20;;;4.60;99.90;;;;;;4987727;28;20395;-70
2021/11/27 09:33:40;;;;;;;0.40;0.20;;;4.50;99.90;;;;;;4990934;28;20393;-72
2021/11/27 09:36:08;;;;;;;0.40;0.20;;;4.40;99.90;;;;;;4990586;28;20405;-72
2021/11/27 09:38:35;;;;;;;0.40;0.20;;;4.30;99.90;;;;;;4989434;28;20396;-71
2021/11/27 09:41:29;;;;;;;0.40;0.20;;;4.20;99.90;;;;;;4988568;28;20412;-71
2021/11/27 09:44:03;;;;;;;0.40;0.20;;;4.00;99.90;;;;;;4990304;28;20398;-72
2021/11/27 09:46:30;;;;;;;0.40;0.20;;;3.80;99.90;;;;;;4989378;28;20440;-73
2021/11/27 09:48:58;;;;;;;0.40;0.20;;;3.70;99.90;;;;;;4989212;28;20433;-74
2021/11/27 09:51:28;;;;;;;0.40;0.20;;;3.70;99.90;;;;;;4988541;28;20433;-74
2021/11/27 09:53:55;;;;;;;0.40;0.20;;;3.80;99.90;;;;;;4989504;28;21826;-74
2021/11/27 09:56:23;;;;;;;0.40;0.20;;;3.80;99.90;;;;;;4989303;28;20396;-73
2021/11/27 09:58:49;;;;;;;0.40;0.20;;;3.90;99.90;;;;;;4988414;28;20403;-72
2021/11/27 10:01:17;;;;;;;0.40;0.20;;;4.00;99.90;;;;;;4988479;28;20398;-75
2021/11/27 10:04:01;;;;;;;0.40;0.20;;;4.10;99.90;;;;;;4989409;28;20408;-74
2021/11/27 10:06:48;;;;;;;0.40;0.20;;;4.30;99.90;;;;;;4973130;28;20480;-73
2021/11/27 10:09:17;;;;;;;0.40;0.20;;;4.40;99.90;;;;;;4971257;28;20423;-73
2021/11/27 10:11:44;;;;;;;0.40;0.20;;;4.50;99.90;;;;;;4987644;28;20420;-74
2021/11/27 10:14:10;;;;;;;0.40;0.20;;;4.50;99.90;;;;;;4989238;28;20992;-73
2021/11/27 10:16:59;;;;;;;0.40;0.20;;;4.50;99.90;;;;;;4989953;28;20386;-74
2021/11/27 10:19:43;;;;;;;0.50;0.50;;;4.70;99.90;;;;;;4975577;28;20432;-73
2021/11/27 10:22:15;;;;;;;0.40;0.20;;;4.70;99.90;;;;;;4984592;28;20427;-73
2021/11/27 10:24:46;;;;;;;0.40;0.40;;;4.60;99.90;;;;;;4989790;28;20489;-76
2021/11/27 10:27:28;;;;;;;0.40;0.20;;;4.70;99.90;;;;;;4972132;28;21165;-73
2021/11/27 10:30:12;;;;;;;0.40;0.20;;;4.70;99.90;;;;;;4983323;28;20449;-73
2021/11/27 10:32:43;;;;;;;0.40;0.20;;;4.80;99.90;;;;;;4986231;28;20405;-73
2021/11/27 10:35:12;;;;;;;0.40;0.20;;;4.90;99.90;;;;;;4986199;28;20437;-73
2021/11/27 10:37:41;;;;;;;0.40;0.20;;;5.00;99.90;;;;;;4988154;28;20476;-73
2021/11/27 10:40:11;;;;;;;0.40;0.20;;;5.10;99.90;;;;;;4988167;28;20402;-73
2021/11/27 10:42:40;;;;;;;0.40;0.20;;;5.10;99.90;;;;;;4987108;28;20398;-73
2021/11/27 10:45:12;;;;;;;0.40;0.20;;;5.30;99.90;;;;;;4989001;28;20464;-73
2021/11/27 10:47:38;;;;;;;0.40;0.20;;;5.40;99.90;;;;;;4988242;28;20397;-72
2021/11/27 10:50:06;;;;;;;0.40;0.20;;;5.30;99.90;;;;;;4986901;28;20430;-73
2021/11/27 10:52:37;;;;;;;0.40;0.20;;;5.40;99.90;;;;;;4986082;28;21077;-73
2021/11/27 10:55:16;;;;;;;0.40;0.20;;;5.60;99.90;;;;;;4987177;28;20398;-72
2021/11/27 10:57:43;;;;;;;0.40;0.20;;;5.90;99.90;;;;;;4988129;28;20494;-72
2021/11/27 11:00:28;;;;;;;0.40;0.20;;;5.90;99.90;;;;;;4987203;28;20443;-73
2021/11/27 11:02:54;;;;;;;0.40;0.40;;;6.00;99.90;;;;;;4971604;28;20815;-72
2021/11/27 11:05:20;;;;;;;0.40;0.20;;;5.90;99.90;;;;;;4988621;28;20797;-72
2021/11/27 11:07:55;;;;;;;0.40;0.20;;;5.70;99.90;;;;;;4989118;28;20420;-72
2021/11/27 11:10:30;;;;;;;0.40;0.20;;;5.60;99.90;;;;;;4986008;28;21160;-73
2021/11/27 11:12:57;;;;;;;0.40;0.20;;;5.30;99.90;;;;;;4969892;28;20751;-71
2021/11/27 11:15:28;;;;;;;0.40;0.20;;;5.20;99.90;;;;;;4988469;28;20923;-72
2021/11/27 11:18:21;;;;;;;0.40;0.20;;;5.30;99.90;;;;;;4988828;28;20551;-73
2021/11/27 11:20:51;;;;;;;0.40;0.20;;;5.20;99.90;;;;;;4987309;28;20536;-73
2021/11/27 11:23:24;;;;;;;0.40;0.20;;;5.30;99.90;;;;;;4988295;28;20404;-70
2021/11/27 11:25:55;;;;;;;0.40;0.20;;;5.40;99.90;;;;;;4987954;28;20405;-72
2021/11/27 11:28:22;;;;;;;0.40;0.20;;;5.40;99.90;;;;;;4987442;28;20478;-74
2021/11/27 11:30:50;;;;;;;0.40;0.20;;;5.30;99.90;;;;;;4968611;28;20451;-72
2021/11/27 11:33:18;;;;;;;0.40;0.20;;;5.20;99.90;;;;;;4988281;28;20399;-72
2021/11/27 11:35:44;;;;;;;0.40;0.20;;;5.30;99.90;;;;;;4988083;28;20403;-71
2021/11/27 11:38:12;;;;;;;0.40;0.20;;;5.60;99.90;;;;;;4989478;28;20389;-72
2021/11/27 11:40:40;;;;;;;0.40;0.20;;;6.50;99.90;;;;;;4986737;28;20393;-72
2021/11/27 11:43:06;;;;;;;0.40;0.20;;;6.70;99.90;;;;;;4980590;28;20776;-72
2021/11/27 11:45:34;;;;;;;0.40;0.30;;;6.90;99.90;;;;;;4990459;28;20394;-73
2021/11/27 11:48:00;;;;;;;0.40;0.20;;;7.50;99.90;;;;;;4991484;28;20445;-73
2021/11/27 11:50:28;;;;;;;0.40;0.20;;;7.60;99.90;;;;;;4958229;28;20420;-71
2021/11/27 11:53:07;;;;;;;0.40;0.20;;;7.20;99.90;;;;;;4970628;28;20755;-73
2021/11/27 11:55:35;;;;;;;0.40;0.20;;;7.10;99.90;;;;;;4970970;28;20391;-73
2021/11/27 11:58:01;;;;;;;0.40;0.20;;;6.80;99.90;;;;;;4969681;28;20417;-73
2021/11/27 12:00:33;;;;;;;0.40;0.20;;;6.50;99.90;;;;;;4968393;28;20396;-72
2021/11/27 12:03:02;;;;;;;0.40;0.20;;;6.20;99.90;;;;;;4967197;28;20396;-73
2021/11/27 12:05:29;;;;;;;0.40;0.20;;;6.00;99.90;;;;;;4968130;28;20929;-73
2021/11/27 12:07:57;;;;;;;0.40;0.20;;;5.80;99.90;;;;;;4964566;28;20408;-71
2021/11/27 12:10:31;;;;;;;0.40;0.20;;;5.90;99.90;;;;;;4966565;28;20425;-71
2021/11/27 12:13:09;;;;;;;0.40;0.20;;;5.90;99.90;;;;;;4967513;28;20395;-71
2021/11/27 12:15:37;;;;;;;0.40;0.20;;;6.20;99.90;;;;;;4967193;28;20400;-71
2021/11/27 12:18:28;;;;;;;0.40;0.20;;;7.00;99.90;;;;;;4965440;28;20910;-71
2021/11/27 12:21:13;;;;;;;0.40;0.20;;;7.40;99.90;;;;;;4963468;28;20464;-71
2021/11/27 12:23:42;;;;;;;0.40;0.20;;;6.70;99.90;;;;;;4967408;28;21138;-72
2021/11/27 12:26:08;;;;;;;0.40;0.20;;;6.30;99.90;;;;;;4949221;28;20826;-71
2021/11/27 12:28:49;;;;;;;0.40;0.20;;;6.10;99.90;;;;;;4947941;28;20901;-72
2021/11/27 12:31:23;;;;;;;0.40;0.20;;;5.90;99.90;;;;;;4966662;28;20411;-71
2021/11/27 12:33:50;;;;;;;0.40;0.20;;;5.60;99.90;;;;;;4967389;28;20395;-71
2021/11/27 12:36:25;;;;;;;0.40;0.20;;;5.50;99.90;;;;;;4965220;28;20425;-70
2021/11/27 12:39:03;;;;;;;0.40;0.20;;;5.50;99.90;;;;;;4966269;28;20540;-71
2021/11/27 12:41:35;;;;;;;0.40;0.20;;;5.60;99.90;;;;;;4966635;28;21226;-71
2021/11/27 12:44:13;;;;;;;0.40;0.20;;;5.60;99.90;;;;;;4967228;28;20457;-70
2021/11/27 12:46:50;;;;;;;0.60;0.40;;;5.60;99.90;;;;;;4946342;28;20408;-70
2021/11/27 12:49:31;;;;;;;0.45;0.43;;;5.50;99.90;;;;;;4973808;28;20438;-70
2021/11/27 12:52:15;;;;;;;0.40;0.20;;;5.70;99.90;;;;;;4988565;28;20423;-70
2021/11/27 12:54:44;;;;;;;0.40;0.20;;;5.80;99.90;;;;;;4991835;28;20385;-70
2021/11/27 12:57:21;;;;;;;0.40;0.20;;;5.80;99.90;;;;;;4988533;28;21233;-70
2021/11/27 13:00:00;;;;;;;0.40;0.20;;;5.60;99.90;;;;;;4991121;28;21082;-70
2021/11/27 13:02:27;;;;;;;0.70;0.40;;;5.70;99.90;;;;;;4991832;28;20419;-71
2021/11/27 13:04:53;;;;;;;0.90;0.50;;;5.70;99.90;;;;;;4990483;28;20452;-70